sensor_id;sensor_type;location;lat;lon;timestamp;temperature;humidity
41884;DHT22;27566;50.930;5.328;2023-07-31T00:00:29;18.60;85.60
41884;DHT22;27566;50.930;5.328;2023-07-31T00:02:55;18.60;85.60
41884;DHT22;27566;50.930;5.328;2023-07-31T00:05:21;18.60;85.50
41884;DHT22;27566;50.930;5.328;2023-07-31T00:07:49;18.50;85.50
41884;DHT22;27566;50.930;5.328;2023-07-31T00:10:15;18.50;85.30
41884;DHT22;27566;50.930;5.328;2023-07-31T00:12:42;18.40;85.40
41884;DHT22;27566;50.930;5.328;2023-07-31T00:15:09;18.30;85.50
41884;DHT22;27566;50.930;5.328;2023-07-31T00:17:36;18.30;85.60
41884;DHT22;27566;50.930;5.328;2023-07-31T00:20:01;18.20;85.90
41884;DHT22;27566;50.930;5.328;2023-07-31T00:22:27;18.20;86.30
41884;DHT22;27566;50.930;5.328;2023-07-31T00:24:53;18.20;86.40
41884;DHT22;27566;50.930;5.328;2023-07-31T00:27:19;18.20;86.50
41884;DHT22;27566;50.930;5.328;2023-07-31T00:29:44;18.20;86.30
41884;DHT22;27566;50.930;5.328;2023-07-31T00:32:10;18.20;86.30
41884;DHT22;27566;50.930;5.328;2023-07-31T00:34:36;18.20;86.40
41884;DHT22;27566;50.930;5.328;2023-07-31T00:37:02;18.10;86.60
41884;DHT22;27566;50.930;5.328;2023-07-31T00:39:30;18.10;86.80
41884;DHT22;27566;50.930;5.328;2023-07-31T00:41:56;18.10;86.90
41884;DHT22;27566;50.930;5.328;2023-07-31T00:44:22;18.10;86.80
41884;DHT22;27566;50.930;5.328;2023-07-31T00:46:48;18.10;86.80
41884;DHT22;27566;50.930;5.328;2023-07-31T00:49:17;18.10;87.00
41884;DHT22;27566;50.930;5.328;2023-07-31T00:51:43;18.20;87.20
41884;DHT22;27566;50.930;5.328;2023-07-31T00:54:09;18.20;87.10
41884;DHT22;27566;50.930;5.328;2023-07-31T00:56:36;18.30;86.90
41884;DHT22;27566;50.930;5.328;2023-07-31T00:59:03;18.30;86.80
41884;DHT22;27566;50.930;5.328;2023-07-31T01:01:29;18.30;86.90
41884;DHT22;27566;50.930;5.328;2023-07-31T01:03:55;18.40;86.80
41884;DHT22;27566;50.930;5.328;2023-07-31T01:09:02;18.40;86.70
41884;DHT22;27566;50.930;5.328;2023-07-31T01:11:31;18.50;86.70
41884;DHT22;27566;50.930;5.328;2023-07-31T01:13:58;18.50;86.60
41884;DHT22;27566;50.930;5.328;2023-07-31T01:16:27;18.50;86.70
41884;DHT22;27566;50.930;5.328;2023-07-31T01:18:53;18.50;86.60
41884;DHT22;27566;50.930;5.328;2023-07-31T01:26:27;18.70;86.40
41884;DHT22;27566;50.930;5.328;2023-07-31T01:28:59;18.70;86.30
41884;DHT22;27566;50.930;5.328;2023-07-31T01:31:29;18.80;86.20
41884;DHT22;27566;50.930;5.328;2023-07-31T01:33:59;18.80;86.20
41884;DHT22;27566;50.930;5.328;2023-07-31T01:36:25;18.80;86.10
41884;DHT22;27566;50.930;5.328;2023-07-31T01:38:51;18.80;85.60
41884;DHT22;27566;50.930;5.328;2023-07-31T01:41:18;18.90;85.50
41884;DHT22;27566;50.930;5.328;2023-07-31T01:43:47;18.90;85.50
41884;DHT22;27566;50.930;5.328;2023-07-31T01:46:13;18.90;85.50
41884;DHT22;27566;50.930;5.328;2023-07-31T01:48:39;19.00;85.30
41884;DHT22;27566;50.930;5.328;2023-07-31T01:51:04;19.00;85.20
41884;DHT22;27566;50.930;5.328;2023-07-31T01:53:31;19.00;85.00
41884;DHT22;27566;50.930;5.328;2023-07-31T01:55:57;19.00;84.70
41884;DHT22;27566;50.930;5.328;2023-07-31T01:58:23;19.00;84.90
41884;DHT22;27566;50.930;5.328;2023-07-31T02:00:49;19.00;85.30
41884;DHT22;27566;50.930;5.328;2023-07-31T02:03:15;19.00;84.50
41884;DHT22;27566;50.930;5.328;2023-07-31T02:05:45;19.10;84.60
41884;DHT22;27566;50.930;5.328;2023-07-31T02:08:11;19.10;84.60
41884;DHT22;27566;50.930;5.328;2023-07-31T02:10:36;19.10;84.50
41884;DHT22;27566;50.930;5.328;2023-07-31T02:13:02;19.10;84.60
41884;DHT22;27566;50.930;5.328;2023-07-31T02:15:30;19.10;84.50
41884;DHT22;27566;50.930;5.328;2023-07-31T02:17:56;19.10;84.70
41884;DHT22;27566;50.930;5.328;2023-07-31T02:20:21;19.10;84.70
41884;DHT22;27566;50.930;5.328;2023-07-31T02:22:47;19.10;84.60
41884;DHT22;27566;50.930;5.328;2023-07-31T02:25:13;19.10;84.60
41884;DHT22;27566;50.930;5.328;2023-07-31T02:27:39;19.20;84.70
41884;DHT22;27566;50.930;5.328;2023-07-31T02:30:05;19.20;84.60
41884;DHT22;27566;50.930;5.328;2023-07-31T02:32:31;19.20;84.40
41884;DHT22;27566;50.930;5.328;2023-07-31T02:34:57;19.20;84.50
41884;DHT22;27566;50.930;5.328;2023-07-31T02:37:23;19.20;84.60
41884;DHT22;27566;50.930;5.328;2023-07-31T02:39:49;19.20;84.10
41884;DHT22;27566;50.930;5.328;2023-07-31T02:42:14;19.10;84.30
41884;DHT22;27566;50.930;5.328;2023-07-31T02:44:40;19.10;84.50
41884;DHT22;27566;50.930;5.328;2023-07-31T02:47:06;19.10;84.50
41884;DHT22;27566;50.930;5.328;2023-07-31T02:49:32;19.10;84.60
41884;DHT22;27566;50.930;5.328;2023-07-31T02:51:58;19.00;84.70
41884;DHT22;27566;50.930;5.328;2023-07-31T02:54:24;19.10;84.80
41884;DHT22;27566;50.930;5.328;2023-07-31T02:56:49;19.10;84.60
41884;DHT22;27566;50.930;5.328;2023-07-31T02:59:16;19.10;84.70
41884;DHT22;27566;50.930;5.328;2023-07-31T03:01:42;19.10;84.70
41884;DHT22;27566;50.930;5.328;2023-07-31T03:04:07;19.10;84.80
41884;DHT22;27566;50.930;5.328;2023-07-31T03:06:33;19.10;84.80
41884;DHT22;27566;50.930;5.328;2023-07-31T03:08:59;19.10;84.30
41884;DHT22;27566;50.930;5.328;2023-07-31T03:11:25;19.10;84.30
41884;DHT22;27566;50.930;5.328;2023-07-31T03:13:50;19.10;84.40
41884;DHT22;27566;50.930;5.328;2023-07-31T03:16:16;19.10;84.40
41884;DHT22;27566;50.930;5.328;2023-07-31T03:18:42;19.10;84.40
41884;DHT22;27566;50.930;5.328;2023-07-31T03:21:08;19.10;84.40
41884;DHT22;27566;50.930;5.328;2023-07-31T03:23:33;19.10;84.40
41884;DHT22;27566;50.930;5.328;2023-07-31T03:26:02;19.10;84.40
41884;DHT22;27566;50.930;5.328;2023-07-31T03:28:31;19.20;84.30
41884;DHT22;27566;50.930;5.328;2023-07-31T03:30:57;19.10;84.30
41884;DHT22;27566;50.930;5.328;2023-07-31T03:33:22;19.10;84.10
41884;DHT22;27566;50.930;5.328;2023-07-31T03:35:48;19.20;84.00
41884;DHT22;27566;50.930;5.328;2023-07-31T03:38:14;19.10;84.00
41884;DHT22;27566;50.930;5.328;2023-07-31T03:40:43;19.10;84.10
41884;DHT22;27566;50.930;5.328;2023-07-31T03:43:09;19.10;84.10
41884;DHT22;27566;50.930;5.328;2023-07-31T03:45:35;19.20;84.20
41884;DHT22;27566;50.930;5.328;2023-07-31T03:48:01;19.20;84.20
41884;DHT22;27566;50.930;5.328;2023-07-31T03:50:28;19.20;84.10
41884;DHT22;27566;50.930;5.328;2023-07-31T03:52:53;19.20;84.00
41884;DHT22;27566;50.930;5.328;2023-07-31T03:55:19;19.20;83.90
41884;DHT22;27566;50.930;5.328;2023-07-31T03:57:45;19.20;83.60
41884;DHT22;27566;50.930;5.328;2023-07-31T04:00:11;19.20;83.60
41884;DHT22;27566;50.930;5.328;2023-07-31T04:02:37;19.20;83.20
41884;DHT22;27566;50.930;5.328;2023-07-31T04:05:03;19.30;83.30
41884;DHT22;27566;50.930;5.328;2023-07-31T04:07:29;19.20;83.00
41884;DHT22;27566;50.930;5.328;2023-07-31T04:09:56;19.20;83.10
41884;DHT22;27566;50.930;5.328;2023-07-31T04:12:22;19.20;83.20
41884;DHT22;27566;50.930;5.328;2023-07-31T04:14:49;19.20;83.20
41884;DHT22;27566;50.930;5.328;2023-07-31T04:17:15;19.30;83.00
41884;DHT22;27566;50.930;5.328;2023-07-31T04:19:41;19.30;83.10
41884;DHT22;27566;50.930;5.328;2023-07-31T04:22:06;19.30;82.50
41884;DHT22;27566;50.930;5.328;2023-07-31T04:24:32;19.30;82.60
41884;DHT22;27566;50.930;5.328;2023-07-31T04:26:58;19.30;82.50
41884;DHT22;27566;50.930;5.328;2023-07-31T04:29:24;19.30;82.20
41884;DHT22;27566;50.930;5.328;2023-07-31T04:31:50;19.30;82.00
41884;DHT22;27566;50.930;5.328;2023-07-31T04:34:16;19.30;81.70
41884;DHT22;27566;50.930;5.328;2023-07-31T04:36:42;19.30;82.50
41884;DHT22;27566;50.930;5.328;2023-07-31T04:39:08;19.30;81.70
41884;DHT22;27566;50.930;5.328;2023-07-31T04:41:33;19.30;81.80
41884;DHT22;27566;50.930;5.328;2023-07-31T04:43:59;19.30;81.90
41884;DHT22;27566;50.930;5.328;2023-07-31T04:46:25;19.40;82.00
41884;DHT22;27566;50.930;5.328;2023-07-31T04:48:51;19.40;82.50
41884;DHT22;27566;50.930;5.328;2023-07-31T04:51:17;19.30;82.70
41884;DHT22;27566;50.930;5.328;2023-07-31T04:53:43;19.30;83.20
41884;DHT22;27566;50.930;5.328;2023-07-31T04:56:09;19.30;83.50
41884;DHT22;27566;50.930;5.328;2023-07-31T04:58:35;19.20;83.60
41884;DHT22;27566;50.930;5.328;2023-07-31T05:01:01;19.20;84.10
41884;DHT22;27566;50.930;5.328;2023-07-31T05:03:26;19.10;84.50
41884;DHT22;27566;50.930;5.328;2023-07-31T05:05:52;19.10;85.20
41884;DHT22;27566;50.930;5.328;2023-07-31T05:08:18;19.00;85.40
41884;DHT22;27566;50.930;5.328;2023-07-31T05:10:44;19.00;85.70
41884;DHT22;27566;50.930;5.328;2023-07-31T05:13:10;19.00;85.90
41884;DHT22;27566;50.930;5.328;2023-07-31T05:15:36;19.00;86.10
41884;DHT22;27566;50.930;5.328;2023-07-31T05:18:02;19.00;86.20
41884;DHT22;27566;50.930;5.328;2023-07-31T05:20:28;19.10;86.30
41884;DHT22;27566;50.930;5.328;2023-07-31T05:22:54;19.10;86.00
41884;DHT22;27566;50.930;5.328;2023-07-31T05:25:20;19.20;85.60
41884;DHT22;27566;50.930;5.328;2023-07-31T05:27:46;19.30;85.10
41884;DHT22;27566;50.930;5.328;2023-07-31T05:30:12;19.30;85.10
41884;DHT22;27566;50.930;5.328;2023-07-31T05:32:37;19.30;84.60
41884;DHT22;27566;50.930;5.328;2023-07-31T05:38:34;19.40;84.30
41884;DHT22;27566;50.930;5.328;2023-07-31T05:41:00;19.40;83.90
41884;DHT22;27566;50.930;5.328;2023-07-31T05:43:26;19.50;83.70
41884;DHT22;27566;50.930;5.328;2023-07-31T05:45:52;19.50;83.30
41884;DHT22;27566;50.930;5.328;2023-07-31T05:48:18;19.50;83.00
41884;DHT22;27566;50.930;5.328;2023-07-31T05:50:44;19.50;82.80
41884;DHT22;27566;50.930;5.328;2023-07-31T05:53:10;19.60;83.00
41884;DHT22;27566;50.930;5.328;2023-07-31T05:55:36;19.50;83.10
41884;DHT22;27566;50.930;5.328;2023-07-31T05:58:02;19.50;82.80
41884;DHT22;27566;50.930;5.328;2023-07-31T06:00:28;19.50;83.10
41884;DHT22;27566;50.930;5.328;2023-07-31T06:02:54;19.50;83.40
41884;DHT22;27566;50.930;5.328;2023-07-31T06:05:20;19.50;83.70
41884;DHT22;27566;50.930;5.328;2023-07-31T06:07:46;19.40;83.90
41884;DHT22;27566;50.930;5.328;2023-07-31T06:10:12;19.50;84.00
41884;DHT22;27566;50.930;5.328;2023-07-31T06:12:38;19.40;83.90
41884;DHT22;27566;50.930;5.328;2023-07-31T06:15:05;19.30;84.60
41884;DHT22;27566;50.930;5.328;2023-07-31T06:17:31;19.30;84.70
41884;DHT22;27566;50.930;5.328;2023-07-31T06:19:57;19.20;84.60
41884;DHT22;27566;50.930;5.328;2023-07-31T06:22:23;19.20;85.20
41884;DHT22;27566;50.930;5.328;2023-07-31T06:24:49;19.10;85.30
41884;DHT22;27566;50.930;5.328;2023-07-31T06:27:15;19.10;85.60
41884;DHT22;27566;50.930;5.328;2023-07-31T06:29:42;19.00;85.90
41884;DHT22;27566;50.930;5.328;2023-07-31T06:32:08;18.90;86.10
41884;DHT22;27566;50.930;5.328;2023-07-31T06:34:34;18.80;86.90
41884;DHT22;27566;50.930;5.328;2023-07-31T06:37:00;18.70;87.70
41884;DHT22;27566;50.930;5.328;2023-07-31T06:39:29;18.70;88.80
41884;DHT22;27566;50.930;5.328;2023-07-31T06:41:55;18.70;88.70
41884;DHT22;27566;50.930;5.328;2023-07-31T06:44:21;18.70;89.80
41884;DHT22;27566;50.930;5.328;2023-07-31T06:46:46;18.70;89.40
41884;DHT22;27566;50.930;5.328;2023-07-31T06:49:12;18.70;89.50
41884;DHT22;27566;50.930;5.328;2023-07-31T06:51:41;18.70;90.10
41884;DHT22;27566;50.930;5.328;2023-07-31T06:54:08;18.70;89.50
41884;DHT22;27566;50.930;5.328;2023-07-31T06:56:34;18.70;89.60
41884;DHT22;27566;50.930;5.328;2023-07-31T06:59:02;18.70;89.40
41884;DHT22;27566;50.930;5.328;2023-07-31T07:01:28;18.80;89.30
41884;DHT22;27566;50.930;5.328;2023-07-31T07:03:54;18.80;89.30
41884;DHT22;27566;50.930;5.328;2023-07-31T07:06:21;18.80;89.10
41884;DHT22;27566;50.930;5.328;2023-07-31T07:08:48;18.90;88.60
41884;DHT22;27566;50.930;5.328;2023-07-31T07:11:14;19.00;88.60
41884;DHT22;27566;50.930;5.328;2023-07-31T07:13:40;19.10;87.60
41884;DHT22;27566;50.930;5.328;2023-07-31T07:16:06;19.20;87.60
41884;DHT22;27566;50.930;5.328;2023-07-31T07:18:32;19.30;88.50
41884;DHT22;27566;50.930;5.328;2023-07-31T07:20:58;19.40;87.40
41884;DHT22;27566;50.930;5.328;2023-07-31T07:23:24;19.50;87.30
41884;DHT22;27566;50.930;5.328;2023-07-31T07:25:50;19.60;86.20
41884;DHT22;27566;50.930;5.328;2023-07-31T07:28:17;19.80;86.20
41884;DHT22;27566;50.930;5.328;2023-07-31T07:30:42;20.00;86.00
41884;DHT22;27566;50.930;5.328;2023-07-31T07:33:08;20.20;85.80
41884;DHT22;27566;50.930;5.328;2023-07-31T07:35:35;20.40;84.80
41884;DHT22;27566;50.930;5.328;2023-07-31T07:38:04;20.60;84.10
41884;DHT22;27566;50.930;5.328;2023-07-31T07:40:30;20.50;83.20
41884;DHT22;27566;50.930;5.328;2023-07-31T07:42:56;20.30;82.20
41884;DHT22;27566;50.930;5.328;2023-07-31T07:45:21;20.10;83.00
41884;DHT22;27566;50.930;5.328;2023-07-31T07:47:47;20.10;83.40
41884;DHT22;27566;50.930;5.328;2023-07-31T07:50:13;20.00;83.20
41884;DHT22;27566;50.930;5.328;2023-07-31T07:52:42;19.90;82.60
41884;DHT22;27566;50.930;5.328;2023-07-31T07:55:08;19.90;82.80
41884;DHT22;27566;50.930;5.328;2023-07-31T07:57:37;19.90;82.50
41884;DHT22;27566;50.930;5.328;2023-07-31T08:00:03;20.10;81.80
41884;DHT22;27566;50.930;5.328;2023-07-31T08:02:29;20.10;81.90
41884;DHT22;27566;50.930;5.328;2023-07-31T08:04:55;20.30;81.70
41884;DHT22;27566;50.930;5.328;2023-07-31T08:07:20;20.40;80.90
41884;DHT22;27566;50.930;5.328;2023-07-31T08:09:46;20.50;80.50
41884;DHT22;27566;50.930;5.328;2023-07-31T08:12:12;20.50;79.70
41884;DHT22;27566;50.930;5.328;2023-07-31T08:14:38;20.50;80.10
41884;DHT22;27566;50.930;5.328;2023-07-31T08:17:04;20.40;79.60
41884;DHT22;27566;50.930;5.328;2023-07-31T08:19:30;20.40;79.50
41884;DHT22;27566;50.930;5.328;2023-07-31T08:21:56;20.40;79.30
41884;DHT22;27566;50.930;5.328;2023-07-31T08:24:22;20.50;79.00
41884;DHT22;27566;50.930;5.328;2023-07-31T08:26:47;20.60;78.50
41884;DHT22;27566;50.930;5.328;2023-07-31T08:29:14;20.70;78.30
41884;DHT22;27566;50.930;5.328;2023-07-31T08:31:39;20.80;77.00
41884;DHT22;27566;50.930;5.328;2023-07-31T08:34:05;20.80;76.80
41884;DHT22;27566;50.930;5.328;2023-07-31T08:36:31;20.80;76.10
41884;DHT22;27566;50.930;5.328;2023-07-31T08:38:57;20.90;76.50
41884;DHT22;27566;50.930;5.328;2023-07-31T08:41:23;20.90;76.10
41884;DHT22;27566;50.930;5.328;2023-07-31T08:43:52;21.00;76.50
41884;DHT22;27566;50.930;5.328;2023-07-31T08:46:21;21.10;76.90
41884;DHT22;27566;50.930;5.328;2023-07-31T08:48:47;21.10;76.40
41884;DHT22;27566;50.930;5.328;2023-07-31T08:51:14;21.20;76.10
41884;DHT22;27566;50.930;5.328;2023-07-31T08:53:41;21.20;76.40
41884;DHT22;27566;50.930;5.328;2023-07-31T08:56:07;21.20;76.60
41884;DHT22;27566;50.930;5.328;2023-07-31T08:58:35;21.20;76.20
41884;DHT22;27566;50.930;5.328;2023-07-31T09:01:04;21.20;75.80
41884;DHT22;27566;50.930;5.328;2023-07-31T09:03:34;21.20;76.50
41884;DHT22;27566;50.930;5.328;2023-07-31T09:06:03;21.40;76.50
41884;DHT22;27566;50.930;5.328;2023-07-31T09:08:31;21.50;75.80
41884;DHT22;27566;50.930;5.328;2023-07-31T09:11:00;21.60;74.50
41884;DHT22;27566;50.930;5.328;2023-07-31T09:13:30;21.60;75.20
41884;DHT22;27566;50.930;5.328;2023-07-31T09:15:56;21.60;75.20
41884;DHT22;27566;50.930;5.328;2023-07-31T09:18:22;21.50;75.20
41884;DHT22;27566;50.930;5.328;2023-07-31T09:21:06;21.60;75.90
41884;DHT22;27566;50.930;5.328;2023-07-31T09:23:44;21.80;76.70
41884;DHT22;27566;50.930;5.328;2023-07-31T09:26:11;22.00;77.30
41884;DHT22;27566;50.930;5.328;2023-07-31T09:28:37;22.10;76.00
41884;DHT22;27566;50.930;5.328;2023-07-31T09:31:03;22.10;75.20
41884;DHT22;27566;50.930;5.328;2023-07-31T09:33:29;22.00;75.20
41884;DHT22;27566;50.930;5.328;2023-07-31T09:35:58;21.80;74.40
41884;DHT22;27566;50.930;5.328;2023-07-31T09:38:26;21.80;74.30
41884;DHT22;27566;50.930;5.328;2023-07-31T09:40:52;21.70;73.70
41884;DHT22;27566;50.930;5.328;2023-07-31T09:43:19;21.70;73.80
41884;DHT22;27566;50.930;5.328;2023-07-31T09:45:46;21.70;73.20
41884;DHT22;27566;50.930;5.328;2023-07-31T09:48:17;21.80;73.50
41884;DHT22;27566;50.930;5.328;2023-07-31T09:50:45;21.90;73.30
41884;DHT22;27566;50.930;5.328;2023-07-31T09:53:13;22.10;72.40
41884;DHT22;27566;50.930;5.328;2023-07-31T09:55:41;22.20;72.20
41884;DHT22;27566;50.930;5.328;2023-07-31T09:58:09;22.20;71.90
41884;DHT22;27566;50.930;5.328;2023-07-31T10:00:36;22.40;71.60
41884;DHT22;27566;50.930;5.328;2023-07-31T10:03:06;22.50;71.50
41884;DHT22;27566;50.930;5.328;2023-07-31T10:05:42;22.60;70.90
41884;DHT22;27566;50.930;5.328;2023-07-31T10:08:13;22.80;70.70
41884;DHT22;27566;50.930;5.328;2023-07-31T10:10:44;22.90;69.70
41884;DHT22;27566;50.930;5.328;2023-07-31T10:13:11;22.90;68.50
41884;DHT22;27566;50.930;5.328;2023-07-31T10:15:37;22.80;68.60
41884;DHT22;27566;50.930;5.328;2023-07-31T10:18:03;22.80;69.10
41884;DHT22;27566;50.930;5.328;2023-07-31T10:20:31;22.80;68.90
41884;DHT22;27566;50.930;5.328;2023-07-31T10:22:58;22.90;68.00
41884;DHT22;27566;50.930;5.328;2023-07-31T10:25:26;23.20;67.60
41884;DHT22;27566;50.930;5.328;2023-07-31T10:27:53;23.20;67.00
41884;DHT22;27566;50.930;5.328;2023-07-31T10:30:24;23.20;67.20
41884;DHT22;27566;50.930;5.328;2023-07-31T10:32:51;23.20;67.80
41884;DHT22;27566;50.930;5.328;2023-07-31T10:35:19;23.20;67.50
41884;DHT22;27566;50.930;5.328;2023-07-31T10:37:48;23.30;67.50
41884;DHT22;27566;50.930;5.328;2023-07-31T10:40:25;23.40;67.30
41884;DHT22;27566;50.930;5.328;2023-07-31T10:42:55;23.40;67.70
41884;DHT22;27566;50.930;5.328;2023-07-31T10:45:41;23.50;67.80
41884;DHT22;27566;50.930;5.328;2023-07-31T10:48:17;23.60;68.70
41884;DHT22;27566;50.930;5.328;2023-07-31T10:50:56;23.90;68.00
41884;DHT22;27566;50.930;5.328;2023-07-31T10:53:32;24.30;66.30
41884;DHT22;27566;50.930;5.328;2023-07-31T10:55:59;24.60;64.90
41884;DHT22;27566;50.930;5.328;2023-07-31T10:58:25;24.70;63.90
41884;DHT22;27566;50.930;5.328;2023-07-31T11:00:56;24.80;62.70
41884;DHT22;27566;50.930;5.328;2023-07-31T11:03:26;24.80;63.50
41884;DHT22;27566;50.930;5.328;2023-07-31T11:08:25;24.80;64.00
41884;DHT22;27566;50.930;5.328;2023-07-31T11:11:06;24.80;64.00
41884;DHT22;27566;50.930;5.328;2023-07-31T11:13:39;24.60;63.60
41884;DHT22;27566;50.930;5.328;2023-07-31T11:16:06;24.60;63.50
41884;DHT22;27566;50.930;5.328;2023-07-31T11:18:32;24.60;63.30
41884;DHT22;27566;50.930;5.328;2023-07-31T11:20:58;24.70;63.00
41884;DHT22;27566;50.930;5.328;2023-07-31T11:23:24;24.80;62.70
41884;DHT22;27566;50.930;5.328;2023-07-31T11:25:50;24.90;62.90
41884;DHT22;27566;50.930;5.328;2023-07-31T11:28:18;25.00;62.70
41884;DHT22;27566;50.930;5.328;2023-07-31T11:30:45;25.20;62.50
41884;DHT22;27566;50.930;5.328;2023-07-31T11:33:13;25.50;62.20
41884;DHT22;27566;50.930;5.328;2023-07-31T11:35:45;25.80;60.30
41884;DHT22;27566;50.930;5.328;2023-07-31T11:38:12;26.10;58.90
41884;DHT22;27566;50.930;5.328;2023-07-31T11:40:46;26.40;59.10
41884;DHT22;27566;50.930;5.328;2023-07-31T11:43:12;26.40;58.20
41884;DHT22;27566;50.930;5.328;2023-07-31T11:45:48;26.30;58.00
41884;DHT22;27566;50.930;5.328;2023-07-31T11:48:25;26.30;58.30
41884;DHT22;27566;50.930;5.328;2023-07-31T11:51:03;26.40;58.40
41884;DHT22;27566;50.930;5.328;2023-07-31T11:53:44;26.70;57.10
41884;DHT22;27566;50.930;5.328;2023-07-31T11:56:13;27.00;56.70
41884;DHT22;27566;50.930;5.328;2023-07-31T11:58:41;27.50;55.90
41884;DHT22;27566;50.930;5.328;2023-07-31T12:01:09;27.90;54.00
41884;DHT22;27566;50.930;5.328;2023-07-31T12:03:35;28.00;54.20
41884;DHT22;27566;50.930;5.328;2023-07-31T12:06:01;28.00;53.60
41884;DHT22;27566;50.930;5.328;2023-07-31T12:08:28;27.80;52.80
41884;DHT22;27566;50.930;5.328;2023-07-31T12:10:54;27.70;52.90
41884;DHT22;27566;50.930;5.328;2023-07-31T12:13:27;27.40;53.60
41884;DHT22;27566;50.930;5.328;2023-07-31T12:15:58;27.30;54.00
41884;DHT22;27566;50.930;5.328;2023-07-31T12:18:26;27.10;54.60
41884;DHT22;27566;50.930;5.328;2023-07-31T12:20:58;26.90;55.00
41884;DHT22;27566;50.930;5.328;2023-07-31T12:23:26;26.60;55.60
41884;DHT22;27566;50.930;5.328;2023-07-31T12:28:41;25.90;57.30
41884;DHT22;27566;50.930;5.328;2023-07-31T12:31:10;25.60;57.80
41884;DHT22;27566;50.930;5.328;2023-07-31T12:33:38;25.50;58.50
41884;DHT22;27566;50.930;5.328;2023-07-31T12:36:10;25.60;58.60
41884;DHT22;27566;50.930;5.328;2023-07-31T12:38:36;25.90;58.60
41884;DHT22;27566;50.930;5.328;2023-07-31T12:41:02;26.70;57.50
41884;DHT22;27566;50.930;5.328;2023-07-31T12:43:28;27.40;55.10
41884;DHT22;27566;50.930;5.328;2023-07-31T12:45:54;28.00;53.40
41884;DHT22;27566;50.930;5.328;2023-07-31T12:48:22;28.40;52.90
41884;DHT22;27566;50.930;5.328;2023-07-31T12:50:48;28.30;51.80
41884;DHT22;27566;50.930;5.328;2023-07-31T12:53:15;28.00;51.90
41884;DHT22;27566;50.930;5.328;2023-07-31T12:55:41;27.60;53.40
41884;DHT22;27566;50.930;5.328;2023-07-31T12:58:07;27.50;54.30
41884;DHT22;27566;50.930;5.328;2023-07-31T13:00:33;27.40;54.10
41884;DHT22;27566;50.930;5.328;2023-07-31T13:03:00;27.10;53.90
41884;DHT22;27566;50.930;5.328;2023-07-31T13:05:27;26.80;54.90
41884;DHT22;27566;50.930;5.328;2023-07-31T13:07:53;26.50;55.40
41884;DHT22;27566;50.930;5.328;2023-07-31T13:10:19;26.20;56.00
41884;DHT22;27566;50.930;5.328;2023-07-31T13:12:48;25.80;56.90
41884;DHT22;27566;50.930;5.328;2023-07-31T13:15:14;25.50;57.60
41884;DHT22;27566;50.930;5.328;2023-07-31T13:17:40;25.20;58.20
41884;DHT22;27566;50.930;5.328;2023-07-31T13:20:07;25.00;58.80
41884;DHT22;27566;50.930;5.328;2023-07-31T13:22:33;24.80;59.70
41884;DHT22;27566;50.930;5.328;2023-07-31T13:24:59;24.70;60.20
41884;DHT22;27566;50.930;5.328;2023-07-31T13:27:25;24.50;61.10
41884;DHT22;27566;50.930;5.328;2023-07-31T13:29:51;24.40;61.20
41884;DHT22;27566;50.930;5.328;2023-07-31T13:32:18;24.20;61.60
41884;DHT22;27566;50.930;5.328;2023-07-31T13:34:48;24.10;61.70
41884;DHT22;27566;50.930;5.328;2023-07-31T13:37:15;23.90;62.20
41884;DHT22;27566;50.930;5.328;2023-07-31T13:39:41;23.90;62.60
41884;DHT22;27566;50.930;5.328;2023-07-31T13:42:08;23.90;62.40
41884;DHT22;27566;50.930;5.328;2023-07-31T13:44:38;24.00;62.60
41884;DHT22;27566;50.930;5.328;2023-07-31T13:47:05;24.10;62.40
41884;DHT22;27566;50.930;5.328;2023-07-31T13:49:31;24.10;62.40
41884;DHT22;27566;50.930;5.328;2023-07-31T13:51:57;24.10;62.10
41884;DHT22;27566;50.930;5.328;2023-07-31T13:54:24;24.00;62.00
41884;DHT22;27566;50.930;5.328;2023-07-31T13:56:51;24.00;62.30
41884;DHT22;27566;50.930;5.328;2023-07-31T13:59:17;24.00;62.40
41884;DHT22;27566;50.930;5.328;2023-07-31T14:01:44;23.90;62.70
41884;DHT22;27566;50.930;5.328;2023-07-31T14:04:10;23.90;62.90
41884;DHT22;27566;50.930;5.328;2023-07-31T14:06:36;23.80;63.20
41884;DHT22;27566;50.930;5.328;2023-07-31T14:09:02;23.70;63.30
41884;DHT22;27566;50.930;5.328;2023-07-31T14:11:30;23.60;63.70
41884;DHT22;27566;50.930;5.328;2023-07-31T14:13:56;23.50;63.90
41884;DHT22;27566;50.930;5.328;2023-07-31T14:16:22;23.40;64.50
41884;DHT22;27566;50.930;5.328;2023-07-31T14:18:48;23.30;64.90
41884;DHT22;27566;50.930;5.328;2023-07-31T14:21:14;23.10;65.30
41884;DHT22;27566;50.930;5.328;2023-07-31T14:23:40;23.10;66.10
41884;DHT22;27566;50.930;5.328;2023-07-31T14:26:07;23.00;66.40
41884;DHT22;27566;50.930;5.328;2023-07-31T14:28:33;22.90;66.90
41884;DHT22;27566;50.930;5.328;2023-07-31T14:30:59;22.80;67.50
41884;DHT22;27566;50.930;5.328;2023-07-31T14:33:25;22.70;68.70
41884;DHT22;27566;50.930;5.328;2023-07-31T14:35:51;22.70;69.90
41884;DHT22;27566;50.930;5.328;2023-07-31T14:38:17;22.70;70.70
41884;DHT22;27566;50.930;5.328;2023-07-31T14:40:43;22.60;71.50
41884;DHT22;27566;50.930;5.328;2023-07-31T14:43:09;22.40;72.30
41884;DHT22;27566;50.930;5.328;2023-07-31T14:45:35;22.30;73.20
41884;DHT22;27566;50.930;5.328;2023-07-31T14:48:01;22.20;73.70
41884;DHT22;27566;50.930;5.328;2023-07-31T14:50:27;22.20;74.00
41884;DHT22;27566;50.930;5.328;2023-07-31T14:52:53;22.30;74.10
41884;DHT22;27566;50.930;5.328;2023-07-31T14:55:19;22.30;73.70
41884;DHT22;27566;50.930;5.328;2023-07-31T14:57:45;22.40;73.90
41884;DHT22;27566;50.930;5.328;2023-07-31T15:00:11;22.40;73.90
41884;DHT22;27566;50.930;5.328;2023-07-31T15:02:39;22.40;72.90
41884;DHT22;27566;50.930;5.328;2023-07-31T15:05:06;22.40;73.20
41884;DHT22;27566;50.930;5.328;2023-07-31T15:07:33;22.20;73.70
41884;DHT22;27566;50.930;5.328;2023-07-31T15:09:59;22.00;74.80
41884;DHT22;27566;50.930;5.328;2023-07-31T15:12:26;21.80;76.00
41884;DHT22;27566;50.930;5.328;2023-07-31T15:14:52;21.60;77.90
41884;DHT22;27566;50.930;5.328;2023-07-31T15:17:18;21.50;78.80
41884;DHT22;27566;50.930;5.328;2023-07-31T15:19:44;21.30;78.90
41884;DHT22;27566;50.930;5.328;2023-07-31T15:22:10;21.20;79.70
41884;DHT22;27566;50.930;5.328;2023-07-31T15:24:36;21.20;80.10
41884;DHT22;27566;50.930;5.328;2023-07-31T15:27:02;21.10;80.40
41884;DHT22;27566;50.930;5.328;2023-07-31T15:29:29;21.10;80.40
41884;DHT22;27566;50.930;5.328;2023-07-31T15:31:55;21.10;80.30
41884;DHT22;27566;50.930;5.328;2023-07-31T15:34:21;21.00;80.50
41884;DHT22;27566;50.930;5.328;2023-07-31T15:36:47;21.00;80.50
41884;DHT22;27566;50.930;5.328;2023-07-31T15:39:13;21.00;80.40
41884;DHT22;27566;50.930;5.328;2023-07-31T15:41:40;21.10;80.30
41884;DHT22;27566;50.930;5.328;2023-07-31T15:44:07;21.20;79.80